sensor_id;sensor_type;location;lat;lon;timestamp;P1;durP1;ratioP1;P2;durP2;ratioP2
18793;SDS011;29610;49.022;12.114;2023-07-31T00:00:06;15.03;;;4.73;;
18793;SDS011;29610;49.022;12.114;2023-07-31T00:02:36;17.00;;;4.37;;
18793;SDS011;29610;49.022;12.114;2023-07-31T00:05:05;9.30;;;4.03;;
18793;SDS011;29610;49.022;12.114;2023-07-31T00:07:36;10.83;;;4.10;;
18793;SDS011;29610;49.022;12.114;2023-07-31T00:10:05;11.17;;;3.87;;
18793;SDS011;29610;49.022;12.114;2023-07-31T00:12:37;14.03;;;4.10;;
18793;SDS011;29610;49.022;12.114;2023-07-31T00:15:07;8.70;;;3.90;;
18793;SDS011;29610;49.022;12.114;2023-07-31T00:17:36;13.30;;;3.80;;
18793;SDS011;29610;49.022;12.114;2023-07-31T00:20:06;10.03;;;3.73;;
18793;SDS011;29610;49.022;12.114;2023-07-31T00:22:35;12.43;;;3.90;;
18793;SDS011;29610;49.022;12.114;2023-07-31T00:25:04;11.80;;;4.60;;
18793;SDS011;29610;49.022;12.114;2023-07-31T00:27:35;12.53;;;3.53;;
18793;SDS011;29610;49.022;12.114;2023-07-31T00:30:04;12.30;;;4.27;;
18793;SDS011;29610;49.022;12.114;2023-07-31T00:32:34;11.90;;;3.97;;
18793;SDS011;29610;49.022;12.114;2023-07-31T00:35:03;8.67;;;3.50;;
18793;SDS011;29610;49.022;12.114;2023-07-31T00:37:32;16.23;;;4.80;;
18793;SDS011;29610;49.022;12.114;2023-07-31T00:40:01;14.90;;;4.83;;
18793;SDS011;29610;49.022;12.114;2023-07-31T00:42:31;9.87;;;3.67;;
18793;SDS011;29610;49.022;12.114;2023-07-31T00:45:01;12.63;;;3.67;;
18793;SDS011;29610;49.022;12.114;2023-07-31T00:47:30;13.53;;;4.37;;
18793;SDS011;29610;49.022;12.114;2023-07-31T00:49:59;10.70;;;4.37;;
18793;SDS011;29610;49.022;12.114;2023-07-31T00:52:28;8.93;;;4.03;;
18793;SDS011;29610;49.022;12.114;2023-07-31T00:54:57;10.80;;;4.87;;
18793;SDS011;29610;49.022;12.114;2023-07-31T00:57:26;11.63;;;4.20;;
18793;SDS011;29610;49.022;12.114;2023-07-31T00:59:55;7.60;;;3.40;;
18793;SDS011;29610;49.022;12.114;2023-07-31T01:02:26;9.17;;;3.53;;
18793;SDS011;29610;49.022;12.114;2023-07-31T01:04:55;8.30;;;3.70;;
18793;SDS011;29610;49.022;12.114;2023-07-31T01:07:27;9.50;;;3.77;;
18793;SDS011;29610;49.022;12.114;2023-07-31T01:10:08;8.83;;;3.83;;
18793;SDS011;29610;49.022;12.114;2023-07-31T01:12:45;12.87;;;4.10;;
18793;SDS011;29610;49.022;12.114;2023-07-31T01:15:15;10.37;;;3.47;;
18793;SDS011;29610;49.022;12.114;2023-07-31T01:17:45;10.00;;;4.40;;
18793;SDS011;29610;49.022;12.114;2023-07-31T01:20:15;10.30;;;4.20;;
18793;SDS011;29610;49.022;12.114;2023-07-31T01:23:03;10.80;;;4.63;;
18793;SDS011;29610;49.022;12.114;2023-07-31T01:26:11;9.40;;;3.93;;
18793;SDS011;29610;49.022;12.114;2023-07-31T01:28:47;15.17;;;3.60;;
18793;SDS011;29610;49.022;12.114;2023-07-31T01:31:28;9.93;;;4.10;;
18793;SDS011;29610;49.022;12.114;2023-07-31T01:34:00;12.77;;;4.13;;
18793;SDS011;29610;49.022;12.114;2023-07-31T01:36:30;11.63;;;4.07;;
18793;SDS011;29610;49.022;12.114;2023-07-31T01:38:59;12.50;;;3.77;;
18793;SDS011;29610;49.022;12.114;2023-07-31T01:41:31;10.67;;;3.10;;
18793;SDS011;29610;49.022;12.114;2023-07-31T01:43:59;12.87;;;3.80;;
18793;SDS011;29610;49.022;12.114;2023-07-31T01:46:28;11.30;;;4.40;;
18793;SDS011;29610;49.022;12.114;2023-07-31T01:48:57;8.80;;;3.47;;
18793;SDS011;29610;49.022;12.114;2023-07-31T01:51:26;11.90;;;4.33;;
18793;SDS011;29610;49.022;12.114;2023-07-31T01:53:55;14.23;;;3.73;;
18793;SDS011;29610;49.022;12.114;2023-07-31T01:56:24;12.23;;;3.70;;
18793;SDS011;29610;49.022;12.114;2023-07-31T01:58:54;9.47;;;3.43;;
18793;SDS011;29610;49.022;12.114;2023-07-31T02:01:22;10.93;;;3.70;;
18793;SDS011;29610;49.022;12.114;2023-07-31T02:03:51;9.87;;;3.20;;
18793;SDS011;29610;49.022;12.114;2023-07-31T02:06:22;11.30;;;4.00;;
18793;SDS011;29610;49.022;12.114;2023-07-31T02:08:50;8.50;;;3.63;;
18793;SDS011;29610;49.022;12.114;2023-07-31T02:11:19;10.63;;;3.23;;
18793;SDS011;29610;49.022;12.114;2023-07-31T02:13:49;10.37;;;3.57;;
18793;SDS011;29610;49.022;12.114;2023-07-31T02:16:19;8.63;;;3.57;;
18793;SDS011;29610;49.022;12.114;2023-07-31T02:18:49;10.57;;;3.63;;
18793;SDS011;29610;49.022;12.114;2023-07-31T02:21:17;10.43;;;4.23;;
18793;SDS011;29610;49.022;12.114;2023-07-31T02:23:46;16.73;;;3.67;;
18793;SDS011;29610;49.022;12.114;2023-07-31T02:26:15;12.07;;;3.97;;
18793;SDS011;29610;49.022;12.114;2023-07-31T02:28:43;10.47;;;3.50;;
18793;SDS011;29610;49.022;12.114;2023-07-31T02:31:12;13.63;;;4.27;;
18793;SDS011;29610;49.022;12.114;2023-07-31T02:33:42;9.80;;;3.70;;
18793;SDS011;29610;49.022;12.114;2023-07-31T02:36:10;15.57;;;4.47;;
18793;SDS011;29610;49.022;12.114;2023-07-31T02:38:39;10.50;;;4.03;;
18793;SDS011;29610;49.022;12.114;2023-07-31T02:41:08;12.07;;;4.30;;
18793;SDS011;29610;49.022;12.114;2023-07-31T02:43:37;10.67;;;4.60;;
18793;SDS011;29610;49.022;12.114;2023-07-31T02:46:05;10.50;;;4.57;;
18793;SDS011;29610;49.022;12.114;2023-07-31T02:48:34;9.20;;;4.03;;
18793;SDS011;29610;49.022;12.114;2023-07-31T02:51:04;11.30;;;4.27;;
18793;SDS011;29610;49.022;12.114;2023-07-31T02:53:33;8.90;;;4.10;;
18793;SDS011;29610;49.022;12.114;2023-07-31T02:56:01;11.40;;;4.13;;
18793;SDS011;29610;49.022;12.114;2023-07-31T02:58:31;11.30;;;4.73;;
18793;SDS011;29610;49.022;12.114;2023-07-31T03:00:59;11.47;;;4.80;;
18793;SDS011;29610;49.022;12.114;2023-07-31T03:03:29;15.83;;;5.03;;
18793;SDS011;29610;49.022;12.114;2023-07-31T03:05:57;10.57;;;4.87;;
18793;SDS011;29610;49.022;12.114;2023-07-31T03:08:28;15.80;;;5.13;;
18793;SDS011;29610;49.022;12.114;2023-07-31T03:10:56;11.90;;;4.73;;
18793;SDS011;29610;49.022;12.114;2023-07-31T03:13:25;19.43;;;5.30;;
18793;SDS011;29610;49.022;12.114;2023-07-31T03:15:54;11.83;;;4.20;;
18793;SDS011;29610;49.022;12.114;2023-07-31T03:18:23;10.63;;;4.70;;
18793;SDS011;29610;49.022;12.114;2023-07-31T03:20:51;10.50;;;4.03;;
18793;SDS011;29610;49.022;12.114;2023-07-31T03:23:20;10.67;;;4.70;;
18793;SDS011;29610;49.022;12.114;2023-07-31T03:25:56;12.00;;;5.43;;
18793;SDS011;29610;49.022;12.114;2023-07-31T03:28:28;17.37;;;4.90;;
18793;SDS011;29610;49.022;12.114;2023-07-31T03:30:57;11.27;;;4.70;;
18793;SDS011;29610;49.022;12.114;2023-07-31T03:33:26;12.73;;;4.47;;
18793;SDS011;29610;49.022;12.114;2023-07-31T03:35:56;11.10;;;4.60;;
18793;SDS011;29610;49.022;12.114;2023-07-31T03:38:24;13.57;;;4.87;;
18793;SDS011;29610;49.022;12.114;2023-07-31T03:40:53;11.67;;;4.07;;
18793;SDS011;29610;49.022;12.114;2023-07-31T03:43:23;12.40;;;4.70;;
18793;SDS011;29610;49.022;12.114;2023-07-31T03:45:53;12.50;;;4.97;;
18793;SDS011;29610;49.022;12.114;2023-07-31T03:48:23;13.83;;;5.20;;
18793;SDS011;29610;49.022;12.114;2023-07-31T03:50:53;11.70;;;4.87;;
18793;SDS011;29610;49.022;12.114;2023-07-31T03:53:23;12.50;;;4.50;;
18793;SDS011;29610;49.022;12.114;2023-07-31T03:55:52;12.63;;;5.17;;
18793;SDS011;29610;49.022;12.114;2023-07-31T03:58:20;12.97;;;4.60;;
18793;SDS011;29610;49.022;12.114;2023-07-31T04:00:50;10.93;;;4.27;;
18793;SDS011;29610;49.022;12.114;2023-07-31T04:03:19;11.00;;;4.23;;
18793;SDS011;29610;49.022;12.114;2023-07-31T04:05:47;11.63;;;5.67;;
18793;SDS011;29610;49.022;12.114;2023-07-31T04:08:16;17.33;;;5.13;;
18793;SDS011;29610;49.022;12.114;2023-07-31T04:10:45;12.73;;;5.17;;
18793;SDS011;29610;49.022;12.114;2023-07-31T04:13:13;12.30;;;5.13;;
18793;SDS011;29610;49.022;12.114;2023-07-31T04:15:44;13.20;;;5.00;;
18793;SDS011;29610;49.022;12.114;2023-07-31T04:18:17;12.83;;;5.00;;
18793;SDS011;29610;49.022;12.114;2023-07-31T04:20:48;10.20;;;4.60;;
18793;SDS011;29610;49.022;12.114;2023-07-31T04:23:17;12.43;;;4.40;;
18793;SDS011;29610;49.022;12.114;2023-07-31T04:25:46;13.73;;;5.00;;
18793;SDS011;29610;49.022;12.114;2023-07-31T04:28:15;11.10;;;5.10;;
18793;SDS011;29610;49.022;12.114;2023-07-31T04:30:48;10.30;;;5.13;;
18793;SDS011;29610;49.022;12.114;2023-07-31T04:33:16;10.47;;;5.40;;
18793;SDS011;29610;49.022;12.114;2023-07-31T04:35:48;10.80;;;5.50;;
18793;SDS011;29610;49.022;12.114;2023-07-31T04:38:19;11.60;;;5.50;;
18793;SDS011;29610;49.022;12.114;2023-07-31T04:40:49;13.63;;;5.43;;
18793;SDS011;29610;49.022;12.114;2023-07-31T04:43:17;11.07;;;4.00;;
18793;SDS011;29610;49.022;12.114;2023-07-31T04:45:48;11.90;;;4.60;;
18793;SDS011;29610;49.022;12.114;2023-07-31T04:48:17;13.23;;;5.40;;
18793;SDS011;29610;49.022;12.114;2023-07-31T04:50:46;10.20;;;5.37;;
18793;SDS011;29610;49.022;12.114;2023-07-31T04:53:14;11.37;;;4.53;;
18793;SDS011;29610;49.022;12.114;2023-07-31T04:55:43;13.83;;;4.73;;
18793;SDS011;29610;49.022;12.114;2023-07-31T04:58:13;14.70;;;5.13;;
18793;SDS011;29610;49.022;12.114;2023-07-31T05:00:42;12.20;;;4.40;;
18793;SDS011;29610;49.022;12.114;2023-07-31T05:03:12;17.13;;;5.07;;
18793;SDS011;29610;49.022;12.114;2023-07-31T05:05:41;14.33;;;4.93;;
18793;SDS011;29610;49.022;12.114;2023-07-31T05:08:10;11.70;;;3.93;;
18793;SDS011;29610;49.022;12.114;2023-07-31T05:10:39;15.03;;;4.77;;
18793;SDS011;29610;49.022;12.114;2023-07-31T05:13:07;10.50;;;3.83;;
18793;SDS011;29610;49.022;12.114;2023-07-31T05:15:36;12.50;;;4.23;;
18793;SDS011;29610;49.022;12.114;2023-07-31T05:18:05;11.70;;;3.30;;
18793;SDS011;29610;49.022;12.114;2023-07-31T05:20:35;9.73;;;3.67;;
18793;SDS011;29610;49.022;12.114;2023-07-31T05:23:03;14.73;;;3.67;;
18793;SDS011;29610;49.022;12.114;2023-07-31T05:25:32;7.90;;;2.90;;
18793;SDS011;29610;49.022;12.114;2023-07-31T05:28:01;9.47;;;3.07;;
18793;SDS011;29610;49.022;12.114;2023-07-31T05:30:30;11.40;;;3.53;;
18793;SDS011;29610;49.022;12.114;2023-07-31T05:32:59;11.70;;;3.33;;
18793;SDS011;29610;49.022;12.114;2023-07-31T05:35:29;9.60;;;2.93;;
18793;SDS011;29610;49.022;12.114;2023-07-31T05:37:59;10.20;;;2.40;;
18793;SDS011;29610;49.022;12.114;2023-07-31T05:40:27;9.33;;;3.10;;
18793;SDS011;29610;49.022;12.114;2023-07-31T05:42:56;8.37;;;2.57;;
18793;SDS011;29610;49.022;12.114;2023-07-31T05:45:25;10.40;;;2.80;;
18793;SDS011;29610;49.022;12.114;2023-07-31T05:47:54;12.70;;;2.80;;
18793;SDS011;29610;49.022;12.114;2023-07-31T05:50:24;11.53;;;3.60;;
18793;SDS011;29610;49.022;12.114;2023-07-31T05:52:53;7.77;;;2.57;;
18793;SDS011;29610;49.022;12.114;2023-07-31T05:55:23;7.87;;;2.60;;
18793;SDS011;29610;49.022;12.114;2023-07-31T05:57:53;14.10;;;2.57;;
18793;SDS011;29610;49.022;12.114;2023-07-31T06:00:25;8.47;;;2.73;;
18793;SDS011;29610;49.022;12.114;2023-07-31T06:02:55;15.00;;;3.80;;
18793;SDS011;29610;49.022;12.114;2023-07-31T06:05:24;9.90;;;3.20;;
18793;SDS011;29610;49.022;12.114;2023-07-31T06:07:53;12.00;;;2.50;;
18793;SDS011;29610;49.022;12.114;2023-07-31T06:10:21;17.50;;;2.50;;
18793;SDS011;29610;49.022;12.114;2023-07-31T06:12:54;8.53;;;3.03;;
18793;SDS011;29610;49.022;12.114;2023-07-31T06:15:24;8.90;;;2.50;;
18793;SDS011;29610;49.022;12.114;2023-07-31T06:17:52;8.70;;;2.73;;
18793;SDS011;29610;49.022;12.114;2023-07-31T06:20:21;16.03;;;3.70;;
18793;SDS011;29610;49.022;12.114;2023-07-31T06:22:50;9.20;;;2.60;;
18793;SDS011;29610;49.022;12.114;2023-07-31T06:25:19;10.63;;;2.50;;
18793;SDS011;29610;49.022;12.114;2023-07-31T06:27:49;10.40;;;2.93;;
18793;SDS011;29610;49.022;12.114;2023-07-31T06:30:18;9.60;;;2.43;;
18793;SDS011;29610;49.022;12.114;2023-07-31T06:32:47;7.93;;;2.07;;
18793;SDS011;29610;49.022;12.114;2023-07-31T06:35:15;7.73;;;2.17;;
18793;SDS011;29610;49.022;12.114;2023-07-31T06:37:44;9.80;;;2.47;;
18793;SDS011;29610;49.022;12.114;2023-07-31T06:40:13;7.80;;;1.97;;
18793;SDS011;29610;49.022;12.114;2023-07-31T06:42:42;8.30;;;2.17;;
18793;SDS011;29610;49.022;12.114;2023-07-31T06:45:12;8.87;;;2.40;;
18793;SDS011;29610;49.022;12.114;2023-07-31T06:47:41;7.40;;;2.13;;
18793;SDS011;29610;49.022;12.114;2023-07-31T06:50:11;8.03;;;1.90;;
18793;SDS011;29610;49.022;12.114;2023-07-31T06:52:39;8.83;;;2.73;;
18793;SDS011;29610;49.022;12.114;2023-07-31T06:55:16;8.83;;;2.20;;
18793;SDS011;29610;49.022;12.114;2023-07-31T06:57:50;7.80;;;2.13;;
18793;SDS011;29610;49.022;12.114;2023-07-31T07:00:22;11.33;;;2.47;;
18793;SDS011;29610;49.022;12.114;2023-07-31T07:02:51;7.00;;;1.80;;
18793;SDS011;29610;49.022;12.114;2023-07-31T07:05:20;7.53;;;1.77;;
18793;SDS011;29610;49.022;12.114;2023-07-31T07:07:49;10.20;;;2.10;;
18793;SDS011;29610;49.022;12.114;2023-07-31T07:10:19;11.87;;;2.10;;
18793;SDS011;29610;49.022;12.114;2023-07-31T07:12:48;47.00;;;6.80;;
18793;SDS011;29610;49.022;12.114;2023-07-31T07:15:17;44.33;;;8.30;;
18793;SDS011;29610;49.022;12.114;2023-07-31T07:17:47;21.80;;;3.10;;
18793;SDS011;29610;49.022;12.114;2023-07-31T07:20:16;16.90;;;3.67;;
18793;SDS011;29610;49.022;12.114;2023-07-31T07:22:47;80.30;;;8.07;;
18793;SDS011;29610;49.022;12.114;2023-07-31T07:25:16;9.10;;;2.17;;
18793;SDS011;29610;49.022;12.114;2023-07-31T07:27:45;30.27;;;4.33;;
18793;SDS011;29610;49.022;12.114;2023-07-31T07:30:14;17.53;;;4.13;;
18793;SDS011;29610;49.022;12.114;2023-07-31T07:32:43;14.70;;;3.20;;
18793;SDS011;29610;49.022;12.114;2023-07-31T07:35:13;20.97;;;3.53;;
18793;SDS011;29610;49.022;12.114;2023-07-31T07:37:42;8.40;;;1.90;;
18793;SDS011;29610;49.022;12.114;2023-07-31T07:40:11;9.60;;;2.30;;
18793;SDS011;29610;49.022;12.114;2023-07-31T07:42:40;10.63;;;2.87;;
18793;SDS011;29610;49.022;12.114;2023-07-31T07:45:09;8.97;;;2.10;;
18793;SDS011;29610;49.022;12.114;2023-07-31T07:47:38;7.90;;;1.87;;
18793;SDS011;29610;49.022;12.114;2023-07-31T07:50:09;10.63;;;2.20;;
18793;SDS011;29610;49.022;12.114;2023-07-31T07:52:39;6.97;;;2.00;;
18793;SDS011;29610;49.022;12.114;2023-07-31T07:55:08;9.57;;;2.20;;
18793;SDS011;29610;49.022;12.114;2023-07-31T07:57:37;11.27;;;2.40;;
18793;SDS011;29610;49.022;12.114;2023-07-31T08:00:06;7.60;;;2.10;;
18793;SDS011;29610;49.022;12.114;2023-07-31T08:02:40;9.20;;;2.17;;
18793;SDS011;29610;49.022;12.114;2023-07-31T08:05:09;8.60;;;1.90;;
18793;SDS011;29610;49.022;12.114;2023-07-31T08:07:37;10.03;;;2.13;;
18793;SDS011;29610;49.022;12.114;2023-07-31T08:10:07;12.83;;;2.43;;
18793;SDS011;29610;49.022;12.114;2023-07-31T08:12:36;7.33;;;2.07;;
18793;SDS011;29610;49.022;12.114;2023-07-31T08:15:06;9.50;;;1.90;;
18793;SDS011;29610;49.022;12.114;2023-07-31T08:17:35;7.80;;;2.10;;
18793;SDS011;29610;49.022;12.114;2023-07-31T08:20:05;8.60;;;2.10;;
18793;SDS011;29610;49.022;12.114;2023-07-31T08:22:36;8.63;;;2.17;;
18793;SDS011;29610;49.022;12.114;2023-07-31T08:25:06;7.67;;;1.73;;
18793;SDS011;29610;49.022;12.114;2023-07-31T08:27:36;8.77;;;2.13;;
18793;SDS011;29610;49.022;12.114;2023-07-31T08:30:05;10.80;;;2.13;;
18793;SDS011;29610;49.022;12.114;2023-07-31T08:32:35;39.10;;;6.10;;
18793;SDS011;29610;49.022;12.114;2023-07-31T08:35:04;101.10;;;12.70;;
18793;SDS011;29610;49.022;12.114;2023-07-31T08:37:33;50.23;;;7.30;;
18793;SDS011;29610;49.022;12.114;2023-07-31T08:40:03;13.27;;;2.50;;
18793;SDS011;29610;49.022;12.114;2023-07-31T08:42:42;10.27;;;1.93;;
18793;SDS011;29610;49.022;12.114;2023-07-31T08:45:13;9.30;;;2.10;;
18793;SDS011;29610;49.022;12.114;2023-07-31T08:47:44;8.67;;;2.10;;
18793;SDS011;29610;49.022;12.114;2023-07-31T08:50:15;7.73;;;2.10;;
18793;SDS011;29610;49.022;12.114;2023-07-31T08:52:47;9.20;;;2.20;;
18793;SDS011;29610;49.022;12.114;2023-07-31T08:55:19;10.57;;;2.20;;
18793;SDS011;29610;49.022;12.114;2023-07-31T08:57:50;12.20;;;2.23;;
18793;SDS011;29610;49.022;12.114;2023-07-31T09:00:23;9.60;;;2.40;;
18793;SDS011;29610;49.022;12.114;2023-07-31T09:02:56;8.43;;;2.33;;
18793;SDS011;29610;49.022;12.114;2023-07-31T09:05:30;8.20;;;2.30;;
18793;SDS011;29610;49.022;12.114;2023-07-31T09:08:03;8.57;;;2.50;;
18793;SDS011;29610;49.022;12.114;2023-07-31T09:10:34;8.63;;;2.30;;
18793;SDS011;29610;49.022;12.114;2023-07-31T09:13:03;11.00;;;2.43;;
18793;SDS011;29610;49.022;12.114;2023-07-31T09:15:38;7.73;;;2.07;;
18793;SDS011;29610;49.022;12.114;2023-07-31T09:18:08;11.57;;;2.27;;
18793;SDS011;29610;49.022;12.114;2023-07-31T09:20:37;10.63;;;2.20;;
18793;SDS011;29610;49.022;12.114;2023-07-31T09:23:06;8.63;;;1.80;;
18793;SDS011;29610;49.022;12.114;2023-07-31T09:25:38;9.53;;;2.00;;
18793;SDS011;29610;49.022;12.114;2023-07-31T09:28:11;18.27;;;3.07;;
18793;SDS011;29610;49.022;12.114;2023-07-31T09:30:44;16.43;;;2.50;;
18793;SDS011;29610;49.022;12.114;2023-07-31T09:33:16;19.03;;;2.57;;
18793;SDS011;29610;49.022;12.114;2023-07-31T09:35:46;7.73;;;2.00;;
18793;SDS011;29610;49.022;12.114;2023-07-31T09:38:15;8.50;;;2.00;;
18793;SDS011;29610;49.022;12.114;2023-07-31T09:40:47;9.97;;;2.40;;
18793;SDS011;29610;49.022;12.114;2023-07-31T09:43:17;12.73;;;2.80;;
18793;SDS011;29610;49.022;12.114;2023-07-31T09:45:47;9.03;;;2.80;;
18793;SDS011;29610;49.022;12.114;2023-07-31T09:48:23;9.70;;;2.10;;
18793;SDS011;29610;49.022;12.114;2023-07-31T09:50:54;12.20;;;3.07;;
18793;SDS011;29610;49.022;12.114;2023-07-31T09:53:27;9.17;;;2.90;;
18793;SDS011;29610;49.022;12.114;2023-07-31T09:55:59;13.30;;;2.40;;
18793;SDS011;29610;49.022;12.114;2023-07-31T09:58:29;12.23;;;2.20;;
18793;SDS011;29610;49.022;12.114;2023-07-31T10:01:02;9.23;;;2.30;;
18793;SDS011;29610;49.022;12.114;2023-07-31T10:03:31;10.37;;;2.43;;
18793;SDS011;29610;49.022;12.114;2023-07-31T10:06:01;8.33;;;2.20;;
18793;SDS011;29610;49.022;12.114;2023-07-31T10:08:32;8.77;;;2.77;;
18793;SDS011;29610;49.022;12.114;2023-07-31T10:11:05;8.60;;;2.40;;
18793;SDS011;29610;49.022;12.114;2023-07-31T10:13:38;10.70;;;2.33;;
18793;SDS011;29610;49.022;12.114;2023-07-31T10:16:10;12.73;;;2.53;;
18793;SDS011;29610;49.022;12.114;2023-07-31T10:18:41;11.90;;;2.27;;
18793;SDS011;29610;49.022;12.114;2023-07-31T10:21:11;9.30;;;2.40;;
18793;SDS011;29610;49.022;12.114;2023-07-31T10:23:40;9.90;;;2.10;;
18793;SDS011;29610;49.022;12.114;2023-07-31T10:26:13;7.77;;;1.83;;
18793;SDS011;29610;49.022;12.114;2023-07-31T10:28:47;13.43;;;1.80;;
18793;SDS011;29610;49.022;12.114;2023-07-31T10:31:20;10.37;;;2.60;;
18793;SDS011;29610;49.022;12.114;2023-07-31T10:33:50;7.60;;;2.00;;
18793;SDS011;29610;49.022;12.114;2023-07-31T10:36:20;10.83;;;2.00;;
18793;SDS011;29610;49.022;12.114;2023-07-31T10:38:49;17.13;;;2.90;;
18793;SDS011;29610;49.022;12.114;2023-07-31T10:41:19;8.37;;;2.40;;
18793;SDS011;29610;49.022;12.114;2023-07-31T10:43:59;11.43;;;2.37;;
18793;SDS011;29610;49.022;12.114;2023-07-31T10:46:30;10.43;;;2.30;;
18793;SDS011;29610;49.022;12.114;2023-07-31T10:49:01;7.17;;;1.70;;
18793;SDS011;29610;49.022;12.114;2023-07-31T10:51:33;8.40;;;2.20;;
18793;SDS011;29610;49.022;12.114;2023-07-31T10:56:51;7.30;;;1.40;;
18793;SDS011;29610;49.022;12.114;2023-07-31T10:59:20;7.80;;;2.00;;
18793;SDS011;29610;49.022;12.114;2023-07-31T11:01:56;9.80;;;2.17;;
18793;SDS011;29610;49.022;12.114;2023-07-31T11:04:25;8.80;;;1.90;;
18793;SDS011;29610;49.022;12.114;2023-07-31T11:06:55;9.27;;;2.23;;
18793;SDS011;29610;49.022;12.114;2023-07-31T11:09:27;8.40;;;1.70;;
18793;SDS011;29610;49.022;12.114;2023-07-31T11:12:00;8.07;;;1.90;;
18793;SDS011;29610;49.022;12.114;2023-07-31T11:14:28;9.63;;;2.33;;
18793;SDS011;29610;49.022;12.114;2023-07-31T11:16:57;10.43;;;2.30;;
18793;SDS011;29610;49.022;12.114;2023-07-31T11:19:26;8.10;;;1.83;;
18793;SDS011;29610;49.022;12.114;2023-07-31T11:21:55;6.50;;;1.60;;
18793;SDS011;29610;49.022;12.114;2023-07-31T11:24:24;8.80;;;2.00;;
18793;SDS011;29610;49.022;12.114;2023-07-31T11:26:54;9.93;;;2.07;;
18793;SDS011;29610;49.022;12.114;2023-07-31T11:29:25;9.40;;;2.30;;
18793;SDS011;29610;49.022;12.114;2023-07-31T11:31:56;8.20;;;1.90;;
18793;SDS011;29610;49.022;12.114;2023-07-31T11:34:24;9.43;;;2.33;;
18793;SDS011;29610;49.022;12.114;2023-07-31T11:36:53;9.30;;;2.03;;
18793;SDS011;29610;49.022;12.114;2023-07-31T11:39:22;6.87;;;1.70;;
18793;SDS011;29610;49.022;12.114;2023-07-31T11:41:51;9.03;;;1.93;;
18793;SDS011;29610;49.022;12.114;2023-07-31T11:44:27;9.00;;;2.03;;
18793;SDS011;29610;49.022;12.114;2023-07-31T11:47:06;7.43;;;1.70;;
18793;SDS011;29610;49.022;12.114;2023-07-31T11:49:36;8.20;;;1.70;;
18793;SDS011;29610;49.022;12.114;2023-07-31T11:52:05;9.80;;;2.13;;
18793;SDS011;29610;49.022;12.114;2023-07-31T11:54:35;7.40;;;1.70;;
18793;SDS011;29610;49.022;12.114;2023-07-31T11:57:04;9.63;;;2.00;;
18793;SDS011;29610;49.022;12.114;2023-07-31T11:59:37;9.73;;;2.37;;
18793;SDS011;29610;49.022;12.114;2023-07-31T12:02:06;10.10;;;2.63;;
18793;SDS011;29610;49.022;12.114;2023-07-31T12:04:35;9.33;;;2.20;;
18793;SDS011;29610;49.022;12.114;2023-07-31T12:07:05;6.67;;;1.53;;
18793;SDS011;29610;49.022;12.114;2023-07-31T12:09:34;7.20;;;1.90;;
18793;SDS011;29610;49.022;12.114;2023-07-31T12:12:03;8.10;;;2.23;;
18793;SDS011;29610;49.022;12.114;2023-07-31T12:14:37;8.30;;;2.13;;
18793;SDS011;29610;49.022;12.114;2023-07-31T12:17:10;9.17;;;2.37;;
18793;SDS011;29610;49.022;12.114;2023-07-31T12:19:39;8.17;;;2.13;;
18793;SDS011;29610;49.022;12.114;2023-07-31T12:22:11;7.30;;;1.97;;
18793;SDS011;29610;49.022;12.114;2023-07-31T12:24:41;8.53;;;1.87;;
18793;SDS011;29610;49.022;12.114;2023-07-31T12:27:12;19.13;;;3.10;;
18793;SDS011;29610;49.022;12.114;2023-07-31T12:29:46;7.03;;;1.80;;
18793;SDS011;29610;49.022;12.114;2023-07-31T12:32:18;10.87;;;2.13;;
18793;SDS011;29610;49.022;12.114;2023-07-31T12:34:49;7.60;;;1.80;;
18793;SDS011;29610;49.022;12.114;2023-07-31T12:37:17;11.73;;;1.97;;
18793;SDS011;29610;49.022;12.114;2023-07-31T12:39:46;9.90;;;2.03;;
18793;SDS011;29610;49.022;12.114;2023-07-31T12:42:16;9.30;;;2.00;;
18793;SDS011;29610;49.022;12.114;2023-07-31T12:44:47;7.47;;;1.97;;
18793;SDS011;29610;49.022;12.114;2023-07-31T12:47:15;8.93;;;1.63;;
18793;SDS011;29610;49.022;12.114;2023-07-31T12:49:44;8.70;;;1.80;;
18793;SDS011;29610;49.022;12.114;2023-07-31T12:52:13;9.43;;;1.83;;
18793;SDS011;29610;49.022;12.114;2023-07-31T12:54:41;9.03;;;2.53;;
18793;SDS011;29610;49.022;12.114;2023-07-31T12:57:10;8.60;;;2.13;;
18793;SDS011;29610;49.022;12.114;2023-07-31T12:59:39;8.40;;;2.10;;
18793;SDS011;29610;49.022;12.114;2023-07-31T13:02:09;9.43;;;2.03;;
18793;SDS011;29610;49.022;12.114;2023-07-31T13:04:38;7.50;;;1.80;;
18793;SDS011;29610;49.022;12.114;2023-07-31T13:07:07;8.50;;;1.83;;
18793;SDS011;29610;49.022;12.114;2023-07-31T13:09:37;9.50;;;2.10;;
18793;SDS011;29610;49.022;12.114;2023-07-31T13:12:06;7.17;;;1.83;;
18793;SDS011;29610;49.022;12.114;2023-07-31T13:14:36;11.03;;;2.60;;
18793;SDS011;29610;49.022;12.114;2023-07-31T13:17:05;8.07;;;2.10;;
18793;SDS011;29610;49.022;12.114;2023-07-31T13:19:35;11.90;;;1.90;;
18793;SDS011;29610;49.022;12.114;2023-07-31T13:22:04;11.60;;;2.77;;
18793;SDS011;29610;49.022;12.114;2023-07-31T13:24:33;11.50;;;2.30;;
18793;SDS011;29610;49.022;12.114;2023-07-31T13:27:02;11.53;;;2.80;;
18793;SDS011;29610;49.022;12.114;2023-07-31T13:29:31;6.67;;;1.63;;
18793;SDS011;29610;49.022;12.114;2023-07-31T13:32:00;8.77;;;2.27;;
18793;SDS011;29610;49.022;12.114;2023-07-31T13:34:29;7.97;;;2.33;;
18793;SDS011;29610;49.022;12.114;2023-07-31T13:36:59;11.50;;;2.47;;
18793;SDS011;29610;49.022;12.114;2023-07-31T13:39:28;13.27;;;2.03;;
18793;SDS011;29610;49.022;12.114;2023-07-31T13:41:56;10.30;;;2.10;;
18793;SDS011;29610;49.022;12.114;2023-07-31T13:44:25;9.00;;;2.13;;
18793;SDS011;29610;49.022;12.114;2023-07-31T13:46:54;8.57;;;2.20;;
18793;SDS011;29610;49.022;12.114;2023-07-31T13:49:23;9.37;;;2.00;;
18793;SDS011;29610;49.022;12.114;2023-07-31T13:51:52;10.57;;;2.47;;
18793;SDS011;29610;49.022;12.114;2023-07-31T13:54:22;11.83;;;3.03;;
18793;SDS011;29610;49.022;12.114;2023-07-31T13:56:55;8.93;;;1.90;;
18793;SDS011;29610;49.022;12.114;2023-07-31T13:59:24;9.07;;;2.20;;
18793;SDS011;29610;49.022;12.114;2023-07-31T14:01:53;11.23;;;2.90;;
18793;SDS011;29610;49.022;12.114;2023-07-31T14:04:23;8.17;;;2.33;;
18793;SDS011;29610;49.022;12.114;2023-07-31T14:06:52;9.07;;;2.63;;
18793;SDS011;29610;49.022;12.114;2023-07-31T14:09:22;8.17;;;2.10;;
18793;SDS011;29610;49.022;12.114;2023-07-31T14:11:52;13.53;;;2.40;;
18793;SDS011;29610;49.022;12.114;2023-07-31T14:14:20;8.70;;;2.20;;
18793;SDS011;29610;49.022;12.114;2023-07-31T14:16:49;9.93;;;2.53;;
18793;SDS011;29610;49.022;12.114;2023-07-31T14:19:18;9.53;;;1.93;;
18793;SDS011;29610;49.022;12.114;2023-07-31T14:21:47;8.17;;;2.23;;
18793;SDS011;29610;49.022;12.114;2023-07-31T14:24:37;13.63;;;2.50;;
18793;SDS011;29610;49.022;12.114;2023-07-31T14:27:06;8.90;;;2.50;;
18793;SDS011;29610;49.022;12.114;2023-07-31T14:29:35;8.93;;;2.37;;
18793;SDS011;29610;49.022;12.114;2023-07-31T14:32:04;7.10;;;2.30;;
18793;SDS011;29610;49.022;12.114;2023-07-31T14:34:34;7.83;;;2.20;;
18793;SDS011;29610;49.022;12.114;2023-07-31T14:37:03;9.47;;;2.63;;
18793;SDS011;29610;49.022;12.114;2023-07-31T14:39:33;8.60;;;2.10;;
18793;SDS011;29610;49.022;12.114;2023-07-31T14:42:06;8.13;;;2.50;;
18793;SDS011;29610;49.022;12.114;2023-07-31T14:44:35;7.80;;;2.07;;
18793;SDS011;29610;49.022;12.114;2023-07-31T14:47:04;9.20;;;2.47;;